createdAt,value
2019-02-25T00:01:32.584Z,59.70
2019-02-25T00:07:32.528Z,54.90
2019-02-25T00:13:32.525Z,51.90
2019-02-25T00:19:32.519Z,47.40
2019-02-25T00:25:32.542Z,45.60
2019-02-25T00:31:32.621Z,42.90
2019-02-25T00:37:32.542Z,43.90
2019-02-25T00:43:32.752Z,38.70
2019-02-25T00:49:32.588Z,37.60
2019-02-25T00:55:32.576Z,35.30
2019-02-25T01:01:32.592Z,32.70
2019-02-25T01:07:32.700Z,29.90
2019-02-25T01:13:32.590Z,28.40
2019-02-25T01:19:32.651Z,26.80
2019-02-25T01:25:32.667Z,27.00
2019-02-25T01:31:32.563Z,25.10
2019-02-25T01:37:32.617Z,402.90
2019-02-25T01:43:32.580Z,200.50
2019-02-25T01:49:32.626Z,136.10
2019-02-25T01:55:32.666Z,146.70
2019-02-25T02:01:32.605Z,130.40
2019-02-25T02:07:32.645Z,121.00
2019-02-25T02:13:32.588Z,119.00
2019-02-25T02:19:32.662Z,110.70
2019-02-25T02:25:32.688Z,107.60
2019-02-25T02:31:32.614Z,96.80
2019-02-25T02:37:32.613Z,90.50
2019-02-25T02:43:32.595Z,87.10
2019-02-25T02:49:32.615Z,85.00
2019-02-25T02:55:32.730Z,78.80
2019-02-25T03:01:32.609Z,76.50
2019-02-25T03:07:32.656Z,69.60
2019-02-25T03:13:32.708Z,66.40
2019-02-25T03:19:32.877Z,62.10
2019-02-25T03:25:32.652Z,59.60
2019-02-25T03:31:32.672Z,55.90
2019-02-25T03:37:32.655Z,53.70
2019-02-25T03:43:32.659Z,50.80
2019-02-25T03:49:32.653Z,48.10
2019-02-25T03:55:32.673Z,45.20
2019-02-25T04:01:32.667Z,42.10
2019-02-25T04:07:32.672Z,40.70
2019-02-25T04:13:32.664Z,38.20
2019-02-25T04:19:32.736Z,36.80
2019-02-25T04:25:32.693Z,35.10
2019-02-25T04:31:32.739Z,33.30
2019-02-25T04:37:32.755Z,32.60
2019-02-25T04:43:32.713Z,30.40
2019-02-25T04:49:32.701Z,30.30
2019-02-25T04:55:32.696Z,27.70
2019-02-25T05:01:32.814Z,26.10
2019-02-25T05:07:32.754Z,26.20
2019-02-25T05:13:32.719Z,25.30
2019-02-25T05:19:32.716Z,22.80
2019-02-25T05:25:32.729Z,23.40
2019-02-25T05:31:32.790Z,21.10
2019-02-25T05:37:32.730Z,20.90
2019-02-25T05:43:32.738Z,20.00
2019-02-25T05:49:32.748Z,19.90
2019-02-25T05:55:32.739Z,18.30
2019-02-25T06:01:32.745Z,17.50
2019-02-25T06:07:32.858Z,16.30
2019-02-25T06:13:32.759Z,15.20
2019-02-25T06:19:32.834Z,14.60
2019-02-25T06:25:32.871Z,14.30
2019-02-25T06:31:32.772Z,14.10
2019-02-25T06:37:32.825Z,12.40
2019-02-25T06:43:32.772Z,13.10
2019-02-25T06:49:32.792Z,12.50
2019-02-25T06:55:32.823Z,11.50
2019-02-25T07:01:32.782Z,11.30
2019-02-25T07:07:32.793Z,11.80
2019-02-25T07:13:32.792Z,11.10
2019-02-25T07:19:32.796Z,11.40
2019-02-25T07:25:32.810Z,11.10
2019-02-25T07:31:32.841Z,10.70
2019-02-25T07:37:32.801Z,10.10
2019-02-25T07:43:32.809Z,9.70
2019-02-25T07:49:32.810Z,9.20
2019-02-25T07:55:32.836Z,9.40
2019-02-25T08:01:32.810Z,8.30
2019-02-25T08:07:32.885Z,8.40
2019-02-25T08:13:32.871Z,8.30
2019-02-25T08:19:32.961Z,8.30
2019-02-25T08:25:32.848Z,8.10
2019-02-25T08:31:32.952Z,130.40
2019-02-25T08:37:32.980Z,160.20
2019-02-25T08:43:32.871Z,129.50
2019-02-25T08:49:32.950Z,119.50
2019-02-25T08:55:32.964Z,96.50
2019-02-25T09:01:32.896Z,191.90
2019-02-25T09:07:32.943Z,291.80
2019-02-25T09:13:32.881Z,174.40
2019-02-25T09:19:32.951Z,130.00
2019-02-25T09:25:32.967Z,127.80
2019-02-25T09:31:32.944Z,109.90
2019-02-25T09:37:32.884Z,246.40
2019-02-25T09:43:32.882Z,299.90
2019-02-25T09:49:32.862Z,149.10
2019-02-25T09:55:32.880Z,222.10
2019-02-25T10:01:32.895Z,230.10
2019-02-25T10:07:32.893Z,192.50
2019-02-25T10:13:32.959Z,186.70
2019-02-25T10:19:34.763Z,165.10
2019-02-25T10:25:32.986Z,155.80
2019-02-25T10:31:32.970Z,170.30
2019-02-25T10:37:34.273Z,207.30
2019-02-25T10:43:34.576Z,218.20
2019-02-25T10:49:33.688Z,188.00
2019-02-25T10:55:32.924Z,161.80
2019-02-25T11:01:33.174Z,195.40
2019-02-25T11:07:34.757Z,218.90
2019-02-25T11:13:34.647Z,203.00
2019-02-25T11:19:33.096Z,183.30
2019-02-25T11:25:32.965Z,162.50
2019-02-25T11:31:33.044Z,137.10
2019-02-25T11:37:32.990Z,123.70
2019-02-25T11:43:33.159Z,119.30
2019-02-25T11:49:33.001Z,104.60
2019-02-25T11:55:34.024Z,129.30
2019-02-25T12:01:33.048Z,187.70
2019-02-25T12:07:32.972Z,183.50
2019-02-25T12:13:33.027Z,150.80
2019-02-25T12:19:33.075Z,199.00
2019-02-25T12:25:33.009Z,250.90
2019-02-25T12:31:33.239Z,213.00
2019-02-25T12:37:33.001Z,187.40
2019-02-25T12:43:33.028Z,167.50
2019-02-25T12:49:33.199Z,173.10
2019-02-25T12:55:33.017Z,238.40
2019-02-25T13:01:33.062Z,221.40
2019-02-25T13:07:33.015Z,250.90
2019-02-25T13:13:33.051Z,240.40
2019-02-25T13:19:33.085Z,222.10
2019-02-25T13:25:33.027Z,186.00
2019-02-25T13:31:33.046Z,163.60
2019-02-25T13:37:33.107Z,145.90
2019-02-25T13:43:33.067Z,136.20
2019-02-25T13:49:33.083Z,123.60
2019-02-25T13:55:33.053Z,108.10
2019-02-25T14:01:33.072Z,98.50
2019-02-25T14:07:34.284Z,92.60
2019-02-25T14:13:33.055Z,73.50
2019-02-25T14:19:33.103Z,67.90
2019-02-25T14:25:33.101Z,59.80
2019-02-25T14:31:33.186Z,59.20
2019-02-25T14:37:33.200Z,53.50
2019-02-25T14:43:36.530Z,47.50
2019-02-25T14:49:35.170Z,51.70
2019-02-25T14:55:33.421Z,164.30
2019-02-25T15:01:33.182Z,117.80
2019-02-25T15:07:33.212Z,123.70
2019-02-25T15:13:34.570Z,163.20
2019-02-25T15:19:34.398Z,148.40
2019-02-25T15:25:33.477Z,129.60
2019-02-25T15:31:33.268Z,102.20
2019-02-25T15:37:33.197Z,137.10
2019-02-25T15:49:33.312Z,135.50
2019-02-25T15:55:33.243Z,133.50
2019-02-25T16:01:33.232Z,127.10
2019-02-25T16:07:33.782Z,134.00
2019-02-25T16:13:33.245Z,156.10
2019-02-25T16:19:39.251Z,191.00
2019-02-25T16:25:34.477Z,159.40
2019-02-25T16:31:33.733Z,144.50
2019-02-25T16:37:33.834Z,128.70
2019-02-25T16:43:33.322Z,118.70
2019-02-25T16:49:33.980Z,138.30
2019-02-25T16:55:33.290Z,148.10
2019-02-25T17:01:34.982Z,144.60
2019-02-25T17:07:33.197Z,133.10
2019-02-25T17:13:34.878Z,120.60
2019-02-25T17:19:33.244Z,115.30
2019-02-25T17:25:34.021Z,114.60
2019-02-25T17:31:34.544Z,105.90
2019-02-25T17:37:33.862Z,94.20
2019-02-25T17:43:34.256Z,92.80
2019-02-25T17:49:33.684Z,80.10
2019-02-25T17:55:34.455Z,73.60
2019-02-25T18:01:33.386Z,69.00
2019-02-25T18:07:33.271Z,64.10
2019-02-25T18:13:34.995Z,58.00
2019-02-25T18:19:33.352Z,54.10
2019-02-25T18:25:33.353Z,50.40
2019-02-25T18:31:33.319Z,44.90
2019-02-25T18:37:33.281Z,37.00
2019-02-25T18:43:33.390Z,53.40
2019-02-25T18:49:34.975Z,160.00
2019-02-25T18:55:34.189Z,114.40
2019-02-25T19:01:33.351Z,101.10
2019-02-25T19:07:33.752Z,100.60
2019-02-25T19:13:33.336Z,92.00
2019-02-25T19:19:34.233Z,96.60
2019-02-25T19:25:33.359Z,182.80
2019-02-25T19:31:34.485Z,178.00
2019-02-25T19:37:37.566Z,102.40
2019-02-25T19:43:33.508Z,98.60
2019-02-25T19:49:34.283Z,98.70
2019-02-25T19:55:33.931Z,99.50
2019-02-25T20:01:33.377Z,133.70
2019-02-25T20:07:35.488Z,184.80
2019-02-25T20:13:33.453Z,151.30
2019-02-25T20:19:33.387Z,585.20
2019-02-25T20:29:30.232Z,255.20
2019-02-25T20:35:31.360Z,191.20
2019-02-25T20:41:31.004Z,164.30
2019-02-25T20:47:30.311Z,149.20
2019-02-25T20:53:32.227Z,140.50
2019-02-25T20:59:30.903Z,130.90
2019-02-25T21:05:30.343Z,118.10
2019-02-25T21:11:30.234Z,112.10
2019-02-25T21:17:30.879Z,103.10
2019-02-25T21:23:30.249Z,99.10
2019-02-25T21:29:31.749Z,85.00
2019-02-25T21:35:34.142Z,305.60
2019-02-25T21:41:30.281Z,336.30
2019-02-25T21:47:30.932Z,246.40
2019-02-25T21:53:31.405Z,220.10
2019-02-25T21:59:31.867Z,198.30
2019-02-25T22:05:30.313Z,204.30
2019-02-25T22:44:51.579Z,320.10
2019-02-25T22:50:51.373Z,411.40
2019-02-25T22:56:49.697Z,395.20
2019-02-25T23:02:52.151Z,345.40
2019-02-25T23:08:51.101Z,333.10
2019-02-25T23:14:49.833Z,319.30
2019-02-25T23:20:50.836Z,310.30
2019-02-25T23:26:50.730Z,289.60
2019-02-25T23:32:49.786Z,264.70
2019-02-25T23:38:50.696Z,256.70
2019-02-25T23:44:49.782Z,247.00
2019-02-25T23:50:50.318Z,216.20
2019-02-25T23:56:52.005Z,212.50
